sensor_id;sensor_type;location;lat;lon;timestamp;P1;durP1;ratioP1;P2;durP2;ratioP2
70369;SDS011;57790;51.356;-2.906;2024-01-16T00:01:43;12.57;;;4.40;;
70369;SDS011;57790;51.356;-2.906;2024-01-16T00:04:44;11.85;;;3.85;;
70369;SDS011;57790;51.356;-2.906;2024-01-16T00:07:44;12.10;;;3.80;;
70369;SDS011;57790;51.356;-2.906;2024-01-16T00:10:45;13.57;;;4.50;;
70369;SDS011;57790;51.356;-2.906;2024-01-16T00:13:45;11.38;;;3.72;;
70369;SDS011;57790;51.356;-2.906;2024-01-16T00:16:46;11.10;;;3.77;;
70369;SDS011;57790;51.356;-2.906;2024-01-16T00:19:47;11.73;;;4.13;;
70369;SDS011;57790;51.356;-2.906;2024-01-16T00:22:48;11.13;;;4.00;;
70369;SDS011;57790;51.356;-2.906;2024-01-16T00:25:48;13.47;;;4.67;;
70369;SDS011;57790;51.356;-2.906;2024-01-16T00:28:48;12.10;;;4.10;;
70369;SDS011;57790;51.356;-2.906;2024-01-16T00:31:49;15.67;;;5.17;;
70369;SDS011;57790;51.356;-2.906;2024-01-16T00:34:49;10.98;;;4.05;;
70369;SDS011;57790;51.356;-2.906;2024-01-16T00:37:51;12.93;;;4.17;;
70369;SDS011;57790;51.356;-2.906;2024-01-16T00:40:52;11.98;;;4.03;;
70369;SDS011;57790;51.356;-2.906;2024-01-16T00:43:52;13.23;;;4.17;;
70369;SDS011;57790;51.356;-2.906;2024-01-16T00:46:53;13.05;;;4.22;;
70369;SDS011;57790;51.356;-2.906;2024-01-16T00:49:53;12.50;;;4.03;;
70369;SDS011;57790;51.356;-2.906;2024-01-16T00:52:54;12.90;;;3.83;;
70369;SDS011;57790;51.356;-2.906;2024-01-16T00:55:54;11.13;;;3.93;;
70369;SDS011;57790;51.356;-2.906;2024-01-16T00:58:55;11.82;;;3.92;;
70369;SDS011;57790;51.356;-2.906;2024-01-16T01:01:55;10.70;;;3.60;;
70369;SDS011;57790;51.356;-2.906;2024-01-16T01:04:55;11.37;;;3.70;;
70369;SDS011;57790;51.356;-2.906;2024-01-16T01:07:56;12.67;;;4.07;;
70369;SDS011;57790;51.356;-2.906;2024-01-16T01:10:57;11.43;;;3.60;;
70369;SDS011;57790;51.356;-2.906;2024-01-16T01:13:57;12.67;;;3.97;;
70369;SDS011;57790;51.356;-2.906;2024-01-16T01:16:57;10.63;;;3.83;;
70369;SDS011;57790;51.356;-2.906;2024-01-16T01:19:58;11.20;;;3.83;;
70369;SDS011;57790;51.356;-2.906;2024-01-16T01:22:58;11.17;;;3.50;;
70369;SDS011;57790;51.356;-2.906;2024-01-16T01:26:00;11.77;;;3.67;;
70369;SDS011;57790;51.356;-2.906;2024-01-16T01:29:00;11.00;;;3.80;;
70369;SDS011;57790;51.356;-2.906;2024-01-16T01:32:00;12.17;;;3.83;;
70369;SDS011;57790;51.356;-2.906;2024-01-16T01:35:01;10.07;;;3.27;;
70369;SDS011;57790;51.356;-2.906;2024-01-16T01:38:01;10.73;;;3.20;;
70369;SDS011;57790;51.356;-2.906;2024-01-16T01:41:02;11.47;;;4.00;;
70369;SDS011;57790;51.356;-2.906;2024-01-16T01:44:02;12.27;;;3.92;;
70369;SDS011;57790;51.356;-2.906;2024-01-16T01:47:03;11.70;;;3.30;;
70369;SDS011;57790;51.356;-2.906;2024-01-16T01:50:08;10.63;;;3.88;;
70369;SDS011;57790;51.356;-2.906;2024-01-16T01:53:09;11.80;;;3.55;;
70369;SDS011;57790;51.356;-2.906;2024-01-16T01:56:16;10.63;;;3.50;;
70369;SDS011;57790;51.356;-2.906;2024-01-16T01:59:18;11.63;;;3.63;;
70369;SDS011;57790;51.356;-2.906;2024-01-16T02:02:21;10.23;;;3.23;;
70369;SDS011;57790;51.356;-2.906;2024-01-16T02:05:22;11.02;;;3.30;;
70369;SDS011;57790;51.356;-2.906;2024-01-16T02:08:23;10.17;;;3.60;;
70369;SDS011;57790;51.356;-2.906;2024-01-16T02:11:24;10.60;;;3.40;;
70369;SDS011;57790;51.356;-2.906;2024-01-16T02:14:24;11.50;;;3.35;;
70369;SDS011;57790;51.356;-2.906;2024-01-16T02:17:25;9.20;;;3.00;;
70369;SDS011;57790;51.356;-2.906;2024-01-16T02:20:25;9.70;;;3.23;;
70369;SDS011;57790;51.356;-2.906;2024-01-16T02:23:29;9.03;;;3.20;;
70369;SDS011;57790;51.356;-2.906;2024-01-16T02:26:31;9.77;;;2.85;;
70369;SDS011;57790;51.356;-2.906;2024-01-16T02:29:32;10.17;;;3.13;;
70369;SDS011;57790;51.356;-2.906;2024-01-16T02:32:32;12.20;;;3.20;;
70369;SDS011;57790;51.356;-2.906;2024-01-16T02:35:33;9.47;;;3.17;;
70369;SDS011;57790;51.356;-2.906;2024-01-16T02:38:33;8.83;;;2.97;;
70369;SDS011;57790;51.356;-2.906;2024-01-16T02:41:34;9.97;;;3.23;;
70369;SDS011;57790;51.356;-2.906;2024-01-16T02:44:34;8.83;;;2.83;;
70369;SDS011;57790;51.356;-2.906;2024-01-16T02:47:35;11.73;;;3.10;;
70369;SDS011;57790;51.356;-2.906;2024-01-16T02:50:35;9.23;;;3.03;;
70369;SDS011;57790;51.356;-2.906;2024-01-16T02:53:36;11.27;;;2.90;;
70369;SDS011;57790;51.356;-2.906;2024-01-16T02:56:36;9.43;;;2.67;;
70369;SDS011;57790;51.356;-2.906;2024-01-16T02:59:36;9.33;;;2.67;;
70369;SDS011;57790;51.356;-2.906;2024-01-16T03:02:37;8.77;;;2.80;;
70369;SDS011;57790;51.356;-2.906;2024-01-16T03:05:37;9.27;;;2.73;;
70369;SDS011;57790;51.356;-2.906;2024-01-16T03:08:37;9.97;;;2.50;;
70369;SDS011;57790;51.356;-2.906;2024-01-16T03:11:38;8.70;;;2.67;;
70369;SDS011;57790;51.356;-2.906;2024-01-16T03:14:38;11.37;;;2.70;;
70369;SDS011;57790;51.356;-2.906;2024-01-16T03:17:39;9.43;;;2.60;;
70369;SDS011;57790;51.356;-2.906;2024-01-16T03:20:39;8.77;;;2.57;;
70369;SDS011;57790;51.356;-2.906;2024-01-16T03:23:39;9.40;;;3.00;;
70369;SDS011;57790;51.356;-2.906;2024-01-16T03:26:40;9.33;;;2.40;;
70369;SDS011;57790;51.356;-2.906;2024-01-16T03:29:42;7.68;;;2.40;;
70369;SDS011;57790;51.356;-2.906;2024-01-16T03:32:43;9.03;;;2.37;;
70369;SDS011;57790;51.356;-2.906;2024-01-16T03:35:43;8.33;;;2.70;;
70369;SDS011;57790;51.356;-2.906;2024-01-16T03:38:43;9.63;;;2.60;;
70369;SDS011;57790;51.356;-2.906;2024-01-16T03:41:44;10.10;;;2.27;;
70369;SDS011;57790;51.356;-2.906;2024-01-16T03:44:44;8.50;;;2.43;;
70369;SDS011;57790;51.356;-2.906;2024-01-16T03:47:45;7.30;;;2.00;;
70369;SDS011;57790;51.356;-2.906;2024-01-16T03:50:45;8.57;;;2.50;;
70369;SDS011;57790;51.356;-2.906;2024-01-16T03:53:47;7.97;;;2.17;;
70369;SDS011;57790;51.356;-2.906;2024-01-16T03:56:48;7.53;;;2.13;;
70369;SDS011;57790;51.356;-2.906;2024-01-16T03:59:48;7.03;;;2.03;;
70369;SDS011;57790;51.356;-2.906;2024-01-16T04:02:49;7.47;;;1.77;;
70369;SDS011;57790;51.356;-2.906;2024-01-16T04:05:49;8.03;;;2.17;;
70369;SDS011;57790;51.356;-2.906;2024-01-16T04:08:49;7.70;;;2.20;;
70369;SDS011;57790;51.356;-2.906;2024-01-16T04:11:50;7.40;;;2.10;;
70369;SDS011;57790;51.356;-2.906;2024-01-16T04:14:50;8.10;;;2.00;;
70369;SDS011;57790;51.356;-2.906;2024-01-16T04:17:51;6.70;;;2.00;;
70369;SDS011;57790;51.356;-2.906;2024-01-16T04:20:51;6.97;;;1.97;;
70369;SDS011;57790;51.356;-2.906;2024-01-16T04:23:52;6.68;;;1.98;;
70369;SDS011;57790;51.356;-2.906;2024-01-16T04:26:52;10.37;;;2.17;;
70369;SDS011;57790;51.356;-2.906;2024-01-16T04:29:52;7.83;;;2.20;;
70369;SDS011;57790;51.356;-2.906;2024-01-16T04:32:53;7.33;;;2.10;;
70369;SDS011;57790;51.356;-2.906;2024-01-16T04:35:54;10.00;;;2.03;;
70369;SDS011;57790;51.356;-2.906;2024-01-16T04:38:55;8.40;;;1.92;;
70369;SDS011;57790;51.356;-2.906;2024-01-16T04:41:56;6.68;;;1.60;;
70369;SDS011;57790;51.356;-2.906;2024-01-16T04:44:56;6.23;;;1.83;;
70369;SDS011;57790;51.356;-2.906;2024-01-16T04:47:57;7.37;;;2.10;;
70369;SDS011;57790;51.356;-2.906;2024-01-16T04:50:57;7.73;;;1.77;;
70369;SDS011;57790;51.356;-2.906;2024-01-16T04:53:57;6.80;;;1.73;;
70369;SDS011;57790;51.356;-2.906;2024-01-16T04:56:58;7.33;;;1.60;;
70369;SDS011;57790;51.356;-2.906;2024-01-16T04:59:58;7.33;;;2.03;;
70369;SDS011;57790;51.356;-2.906;2024-01-16T05:02:59;6.15;;;1.80;;
70369;SDS011;57790;51.356;-2.906;2024-01-16T05:05:59;5.87;;;1.50;;
70369;SDS011;57790;51.356;-2.906;2024-01-16T05:08:59;7.30;;;1.80;;
70369;SDS011;57790;51.356;-2.906;2024-01-16T05:12:00;7.07;;;1.83;;
70369;SDS011;57790;51.356;-2.906;2024-01-16T05:15:01;6.07;;;1.70;;
70369;SDS011;57790;51.356;-2.906;2024-01-16T05:18:01;6.87;;;1.80;;
70369;SDS011;57790;51.356;-2.906;2024-01-16T05:21:04;6.45;;;1.88;;
70369;SDS011;57790;51.356;-2.906;2024-01-16T05:24:04;6.13;;;1.67;;
70369;SDS011;57790;51.356;-2.906;2024-01-16T05:27:05;6.93;;;1.57;;
70369;SDS011;57790;51.356;-2.906;2024-01-16T05:30:05;5.67;;;1.60;;
70369;SDS011;57790;51.356;-2.906;2024-01-16T05:33:07;5.40;;;1.40;;
70369;SDS011;57790;51.356;-2.906;2024-01-16T05:36:08;6.65;;;1.63;;
70369;SDS011;57790;51.356;-2.906;2024-01-16T05:39:09;5.80;;;1.40;;
70369;SDS011;57790;51.356;-2.906;2024-01-16T05:42:11;8.68;;;1.60;;
70369;SDS011;57790;51.356;-2.906;2024-01-16T05:45:11;6.10;;;1.40;;
70369;SDS011;57790;51.356;-2.906;2024-01-16T05:48:13;7.90;;;1.73;;
70369;SDS011;57790;51.356;-2.906;2024-01-16T05:51:14;7.03;;;1.70;;
70369;SDS011;57790;51.356;-2.906;2024-01-16T05:54:14;6.97;;;1.50;;
70369;SDS011;57790;51.356;-2.906;2024-01-16T05:57:15;5.23;;;1.43;;
70369;SDS011;57790;51.356;-2.906;2024-01-16T06:00:15;5.63;;;1.63;;
70369;SDS011;57790;51.356;-2.906;2024-01-16T06:03:18;7.78;;;1.80;;
70369;SDS011;57790;51.356;-2.906;2024-01-16T06:06:18;6.03;;;1.37;;
70369;SDS011;57790;51.356;-2.906;2024-01-16T06:09:19;6.78;;;1.58;;
70369;SDS011;57790;51.356;-2.906;2024-01-16T06:12:19;6.13;;;1.67;;
70369;SDS011;57790;51.356;-2.906;2024-01-16T06:15:20;4.87;;;1.13;;
70369;SDS011;57790;51.356;-2.906;2024-01-16T06:18:20;7.15;;;1.45;;
70369;SDS011;57790;51.356;-2.906;2024-01-16T06:21:21;7.00;;;1.57;;
70369;SDS011;57790;51.356;-2.906;2024-01-16T06:24:21;7.00;;;1.60;;
70369;SDS011;57790;51.356;-2.906;2024-01-16T06:27:21;6.37;;;1.43;;
70369;SDS011;57790;51.356;-2.906;2024-01-16T06:30:22;7.20;;;1.60;;
70369;SDS011;57790;51.356;-2.906;2024-01-16T06:33:25;7.40;;;1.50;;
70369;SDS011;57790;51.356;-2.906;2024-01-16T06:36:26;6.22;;;1.40;;
70369;SDS011;57790;51.356;-2.906;2024-01-16T06:39:26;5.43;;;1.27;;
70369;SDS011;57790;51.356;-2.906;2024-01-16T06:42:27;5.70;;;1.40;;
70369;SDS011;57790;51.356;-2.906;2024-01-16T06:45:27;9.43;;;1.30;;
70369;SDS011;57790;51.356;-2.906;2024-01-16T06:48:28;6.30;;;1.40;;
70369;SDS011;57790;51.356;-2.906;2024-01-16T06:51:28;5.30;;;1.35;;
70369;SDS011;57790;51.356;-2.906;2024-01-16T06:54:28;4.23;;;1.10;;
70369;SDS011;57790;51.356;-2.906;2024-01-16T06:57:29;5.73;;;1.30;;
70369;SDS011;57790;51.356;-2.906;2024-01-16T07:00:29;5.93;;;1.53;;
70369;SDS011;57790;51.356;-2.906;2024-01-16T07:03:30;5.50;;;1.53;;
70369;SDS011;57790;51.356;-2.906;2024-01-16T07:06:30;4.97;;;0.97;;
70369;SDS011;57790;51.356;-2.906;2024-01-16T07:09:30;5.28;;;1.20;;
70369;SDS011;57790;51.356;-2.906;2024-01-16T07:12:31;5.23;;;1.30;;
70369;SDS011;57790;51.356;-2.906;2024-01-16T07:15:31;6.37;;;1.10;;
70369;SDS011;57790;51.356;-2.906;2024-01-16T07:18:32;4.97;;;1.10;;
70369;SDS011;57790;51.356;-2.906;2024-01-16T07:21:33;6.13;;;1.23;;
70369;SDS011;57790;51.356;-2.906;2024-01-16T07:24:33;4.87;;;1.17;;
70369;SDS011;57790;51.356;-2.906;2024-01-16T07:27:34;5.13;;;1.37;;
70369;SDS011;57790;51.356;-2.906;2024-01-16T07:30:34;5.17;;;1.10;;
70369;SDS011;57790;51.356;-2.906;2024-01-16T07:33:35;4.93;;;1.20;;
70369;SDS011;57790;51.356;-2.906;2024-01-16T07:36:35;4.83;;;1.03;;
70369;SDS011;57790;51.356;-2.906;2024-01-16T07:39:36;4.43;;;1.10;;
70369;SDS011;57790;51.356;-2.906;2024-01-16T07:42:36;4.13;;;1.10;;
70369;SDS011;57790;51.356;-2.906;2024-01-16T07:45:36;4.35;;;1.00;;
70369;SDS011;57790;51.356;-2.906;2024-01-16T07:48:37;4.33;;;1.00;;
70369;SDS011;57790;51.356;-2.906;2024-01-16T07:51:38;4.63;;;1.20;;
70369;SDS011;57790;51.356;-2.906;2024-01-16T07:54:38;5.18;;;1.05;;
70369;SDS011;57790;51.356;-2.906;2024-01-16T07:57:39;3.67;;;0.93;;
70369;SDS011;57790;51.356;-2.906;2024-01-16T08:00:39;5.17;;;1.00;;
70369;SDS011;57790;51.356;-2.906;2024-01-16T08:03:40;6.00;;;1.10;;
70369;SDS011;57790;51.356;-2.906;2024-01-16T08:06:42;4.97;;;1.10;;
70369;SDS011;57790;51.356;-2.906;2024-01-16T08:09:42;3.40;;;0.98;;
70369;SDS011;57790;51.356;-2.906;2024-01-16T08:12:43;7.63;;;1.27;;
70369;SDS011;57790;51.356;-2.906;2024-01-16T08:15:43;3.63;;;1.10;;
70369;SDS011;57790;51.356;-2.906;2024-01-16T08:18:43;5.80;;;1.30;;
70369;SDS011;57790;51.356;-2.906;2024-01-16T08:21:44;6.17;;;1.20;;
70369;SDS011;57790;51.356;-2.906;2024-01-16T08:24:44;5.40;;;1.30;;
70369;SDS011;57790;51.356;-2.906;2024-01-16T08:27:44;4.23;;;1.00;;
70369;SDS011;57790;51.356;-2.906;2024-01-16T08:30:45;7.87;;;1.20;;
70369;SDS011;57790;51.356;-2.906;2024-01-16T08:33:45;5.97;;;1.00;;
70369;SDS011;57790;51.356;-2.906;2024-01-16T08:36:46;6.20;;;1.40;;
70369;SDS011;57790;51.356;-2.906;2024-01-16T08:39:46;4.80;;;1.00;;
70369;SDS011;57790;51.356;-2.906;2024-01-16T08:42:47;7.77;;;1.37;;
70369;SDS011;57790;51.356;-2.906;2024-01-16T08:45:51;6.20;;;1.30;;
70369;SDS011;57790;51.356;-2.906;2024-01-16T08:48:51;4.93;;;1.03;;
70369;SDS011;57790;51.356;-2.906;2024-01-16T08:51:52;6.13;;;0.93;;
70369;SDS011;57790;51.356;-2.906;2024-01-16T08:54:52;5.20;;;1.00;;
70369;SDS011;57790;51.356;-2.906;2024-01-16T08:57:53;3.37;;;0.90;;
70369;SDS011;57790;51.356;-2.906;2024-01-16T09:00:53;5.20;;;1.10;;
70369;SDS011;57790;51.356;-2.906;2024-01-16T09:03:53;4.17;;;0.77;;
70369;SDS011;57790;51.356;-2.906;2024-01-16T09:06:54;5.20;;;1.20;;
70369;SDS011;57790;51.356;-2.906;2024-01-16T09:09:54;3.95;;;0.88;;
70369;SDS011;57790;51.356;-2.906;2024-01-16T09:12:55;4.87;;;0.73;;
70369;SDS011;57790;51.356;-2.906;2024-01-16T09:15:55;5.03;;;0.93;;
70369;SDS011;57790;51.356;-2.906;2024-01-16T09:18:55;4.43;;;1.00;;
70369;SDS011;57790;51.356;-2.906;2024-01-16T09:21:56;5.20;;;1.38;;
70369;SDS011;57790;51.356;-2.906;2024-01-16T09:24:57;5.23;;;1.10;;
70369;SDS011;57790;51.356;-2.906;2024-01-16T09:27:57;3.77;;;0.80;;
70369;SDS011;57790;51.356;-2.906;2024-01-16T09:30:57;3.67;;;0.90;;
70369;SDS011;57790;51.356;-2.906;2024-01-16T09:33:58;4.60;;;0.90;;
70369;SDS011;57790;51.356;-2.906;2024-01-16T09:36:58;4.53;;;1.00;;
70369;SDS011;57790;51.356;-2.906;2024-01-16T09:40:02;7.00;;;1.10;;
70369;SDS011;57790;51.356;-2.906;2024-01-16T09:43:05;6.45;;;0.93;;
70369;SDS011;57790;51.356;-2.906;2024-01-16T09:46:08;4.03;;;0.95;;
70369;SDS011;57790;51.356;-2.906;2024-01-16T09:49:10;5.03;;;1.05;;
70369;SDS011;57790;51.356;-2.906;2024-01-16T09:52:12;6.00;;;0.95;;
70369;SDS011;57790;51.356;-2.906;2024-01-16T09:55:13;5.67;;;1.17;;
70369;SDS011;57790;51.356;-2.906;2024-01-16T09:58:13;4.78;;;1.10;;
70369;SDS011;57790;51.356;-2.906;2024-01-16T10:01:14;7.27;;;1.10;;
70369;SDS011;57790;51.356;-2.906;2024-01-16T10:04:16;6.78;;;1.30;;
70369;SDS011;57790;51.356;-2.906;2024-01-16T10:07:16;5.80;;;1.10;;
70369;SDS011;57790;51.356;-2.906;2024-01-16T10:10:18;4.57;;;0.75;;
70369;SDS011;57790;51.356;-2.906;2024-01-16T10:13:20;2.95;;;0.60;;
70369;SDS011;57790;51.356;-2.906;2024-01-16T10:16:21;5.17;;;1.03;;
70369;SDS011;57790;51.356;-2.906;2024-01-16T10:19:22;4.17;;;0.77;;
70369;SDS011;57790;51.356;-2.906;2024-01-16T10:22:23;4.13;;;0.90;;
70369;SDS011;57790;51.356;-2.906;2024-01-16T10:25:24;4.17;;;1.10;;
70369;SDS011;57790;51.356;-2.906;2024-01-16T10:28:25;3.47;;;0.80;;
70369;SDS011;57790;51.356;-2.906;2024-01-16T10:31:25;3.73;;;0.77;;
70369;SDS011;57790;51.356;-2.906;2024-01-16T10:34:30;4.10;;;1.17;;
70369;SDS011;57790;51.356;-2.906;2024-01-16T10:37:40;4.20;;;0.80;;
70369;SDS011;57790;51.356;-2.906;2024-01-16T10:40:44;3.20;;;0.70;;
70369;SDS011;57790;51.356;-2.906;2024-01-16T10:43:45;5.97;;;0.90;;
70369;SDS011;57790;51.356;-2.906;2024-01-16T10:46:45;6.03;;;1.00;;
70369;SDS011;57790;51.356;-2.906;2024-01-16T10:49:51;7.03;;;1.13;;
70369;SDS011;57790;51.356;-2.906;2024-01-16T10:52:52;4.97;;;0.90;;
70369;SDS011;57790;51.356;-2.906;2024-01-16T10:55:54;6.38;;;0.75;;
70369;SDS011;57790;51.356;-2.906;2024-01-16T10:59:09;4.60;;;0.80;;
70369;SDS011;57790;51.356;-2.906;2024-01-16T11:02:54;4.25;;;0.80;;
70369;SDS011;57790;51.356;-2.906;2024-01-16T11:06:01;4.00;;;0.90;;
70369;SDS011;57790;51.356;-2.906;2024-01-16T11:09:06;6.60;;;0.80;;
70369;SDS011;57790;51.356;-2.906;2024-01-16T11:12:08;4.68;;;0.82;;
70369;SDS011;57790;51.356;-2.906;2024-01-16T11:15:11;4.13;;;0.90;;
70369;SDS011;57790;51.356;-2.906;2024-01-16T11:18:12;5.72;;;0.90;;
70369;SDS011;57790;51.356;-2.906;2024-01-16T11:21:14;4.15;;;0.90;;
70369;SDS011;57790;51.356;-2.906;2024-01-16T11:24:16;4.78;;;0.70;;
70369;SDS011;57790;51.356;-2.906;2024-01-16T11:27:21;5.83;;;0.93;;
70369;SDS011;57790;51.356;-2.906;2024-01-16T11:30:30;4.43;;;0.85;;
70369;SDS011;57790;51.356;-2.906;2024-01-16T11:39:43;5.37;;;0.80;;
70369;SDS011;57790;51.356;-2.906;2024-01-16T11:42:44;5.40;;;0.90;;
70369;SDS011;57790;51.356;-2.906;2024-01-16T11:45:48;4.03;;;0.90;;
70369;SDS011;57790;51.356;-2.906;2024-01-16T11:49:01;5.10;;;0.93;;
70369;SDS011;57790;51.356;-2.906;2024-01-16T11:52:03;4.43;;;1.20;;
70369;SDS011;57790;51.356;-2.906;2024-01-16T11:55:24;5.60;;;1.10;;
70369;SDS011;57790;51.356;-2.906;2024-01-16T12:02:02;5.35;;;1.10;;
70369;SDS011;57790;51.356;-2.906;2024-01-16T12:05:10;4.87;;;1.03;;
70369;SDS011;57790;51.356;-2.906;2024-01-16T12:08:11;6.20;;;1.17;;
70369;SDS011;57790;51.356;-2.906;2024-01-16T12:11:17;4.32;;;0.93;;
70369;SDS011;57790;51.356;-2.906;2024-01-16T12:14:19;4.57;;;1.10;;
70369;SDS011;57790;51.356;-2.906;2024-01-16T12:17:19;5.30;;;1.10;;
70369;SDS011;57790;51.356;-2.906;2024-01-16T12:20:20;4.77;;;1.07;;
70369;SDS011;57790;51.356;-2.906;2024-01-16T12:23:21;3.97;;;1.00;;
70369;SDS011;57790;51.356;-2.906;2024-01-16T12:26:23;4.47;;;0.95;;
70369;SDS011;57790;51.356;-2.906;2024-01-16T12:29:23;4.67;;;1.07;;
70369;SDS011;57790;51.356;-2.906;2024-01-16T12:32:24;5.10;;;1.07;;
70369;SDS011;57790;51.356;-2.906;2024-01-16T12:35:24;3.60;;;0.95;;
70369;SDS011;57790;51.356;-2.906;2024-01-16T12:38:25;4.67;;;1.10;;
70369;SDS011;57790;51.356;-2.906;2024-01-16T12:41:29;4.47;;;1.10;;
70369;SDS011;57790;51.356;-2.906;2024-01-16T12:44:33;6.20;;;1.00;;
70369;SDS011;57790;51.356;-2.906;2024-01-16T12:47:33;5.67;;;1.00;;
70369;SDS011;57790;51.356;-2.906;2024-01-16T12:50:34;3.70;;;0.80;;
70369;SDS011;57790;51.356;-2.906;2024-01-16T12:53:34;4.23;;;0.80;;
70369;SDS011;57790;51.356;-2.906;2024-01-16T12:56:36;7.07;;;1.15;;
70369;SDS011;57790;51.356;-2.906;2024-01-16T12:59:37;4.17;;;1.00;;
70369;SDS011;57790;51.356;-2.906;2024-01-16T13:02:38;5.10;;;1.00;;
70369;SDS011;57790;51.356;-2.906;2024-01-16T13:05:39;4.03;;;0.80;;
70369;SDS011;57790;51.356;-2.906;2024-01-16T13:08:39;4.47;;;1.00;;
70369;SDS011;57790;51.356;-2.906;2024-01-16T13:11:49;4.38;;;0.90;;
70369;SDS011;57790;51.356;-2.906;2024-01-16T13:14:51;5.00;;;0.90;;
70369;SDS011;57790;51.356;-2.906;2024-01-16T13:17:51;4.70;;;0.90;;
70369;SDS011;57790;51.356;-2.906;2024-01-16T13:20:52;4.50;;;1.03;;
70369;SDS011;57790;51.356;-2.906;2024-01-16T13:23:53;3.70;;;0.70;;
70369;SDS011;57790;51.356;-2.906;2024-01-16T13:26:53;6.03;;;1.17;;
70369;SDS011;57790;51.356;-2.906;2024-01-16T13:29:54;6.90;;;1.23;;
70369;SDS011;57790;51.356;-2.906;2024-01-16T13:32:54;4.43;;;1.00;;
70369;SDS011;57790;51.356;-2.906;2024-01-16T13:35:55;5.43;;;1.17;;
70369;SDS011;57790;51.356;-2.906;2024-01-16T13:38:55;2.93;;;0.80;;
70369;SDS011;57790;51.356;-2.906;2024-01-16T13:41:55;7.47;;;1.20;;
70369;SDS011;57790;51.356;-2.906;2024-01-16T13:44:56;6.70;;;1.30;;
70369;SDS011;57790;51.356;-2.906;2024-01-16T13:47:57;5.28;;;1.20;;
70369;SDS011;57790;51.356;-2.906;2024-01-16T13:50:57;5.53;;;1.00;;
70369;SDS011;57790;51.356;-2.906;2024-01-16T13:53:58;5.77;;;1.10;;
70369;SDS011;57790;51.356;-2.906;2024-01-16T13:56:58;5.57;;;1.20;;
70369;SDS011;57790;51.356;-2.906;2024-01-16T13:59:59;6.67;;;1.90;;
70369;SDS011;57790;51.356;-2.906;2024-01-16T14:02:59;5.60;;;1.17;;
70369;SDS011;57790;51.356;-2.906;2024-01-16T14:06:00;5.78;;;1.20;;
70369;SDS011;57790;51.356;-2.906;2024-01-16T14:09:00;5.03;;;1.10;;
70369;SDS011;57790;51.356;-2.906;2024-01-16T14:12:00;5.77;;;1.10;;
70369;SDS011;57790;51.356;-2.906;2024-01-16T14:15:01;6.73;;;1.40;;
70369;SDS011;57790;51.356;-2.906;2024-01-16T14:18:04;4.85;;;1.10;;
70369;SDS011;57790;51.356;-2.906;2024-01-16T14:21:05;4.07;;;1.17;;
70369;SDS011;57790;51.356;-2.906;2024-01-16T14:24:05;5.93;;;1.10;;
70369;SDS011;57790;51.356;-2.906;2024-01-16T14:27:05;5.30;;;1.00;;
70369;SDS011;57790;51.356;-2.906;2024-01-16T14:30:15;4.15;;;1.08;;
70369;SDS011;57790;51.356;-2.906;2024-01-16T14:33:16;3.35;;;0.90;;
70369;SDS011;57790;51.356;-2.906;2024-01-16T14:36:17;4.87;;;1.10;;
70369;SDS011;57790;51.356;-2.906;2024-01-16T14:39:18;4.88;;;1.00;;
70369;SDS011;57790;51.356;-2.906;2024-01-16T14:42:24;7.28;;;1.23;;
70369;SDS011;57790;51.356;-2.906;2024-01-16T14:45:25;7.23;;;1.13;;
70369;SDS011;57790;51.356;-2.906;2024-01-16T14:48:27;5.88;;;1.23;;
70369;SDS011;57790;51.356;-2.906;2024-01-16T14:51:27;4.47;;;1.23;;
70369;SDS011;57790;51.356;-2.906;2024-01-16T14:54:28;3.40;;;1.00;;
70369;SDS011;57790;51.356;-2.906;2024-01-16T14:57:29;5.15;;;1.13;;
70369;SDS011;57790;51.356;-2.906;2024-01-16T15:00:31;5.15;;;1.08;;
70369;SDS011;57790;51.356;-2.906;2024-01-16T15:03:32;6.13;;;1.30;;
70369;SDS011;57790;51.356;-2.906;2024-01-16T15:06:33;7.80;;;1.30;;
70369;SDS011;57790;51.356;-2.906;2024-01-16T15:09:34;5.03;;;0.93;;
70369;SDS011;57790;51.356;-2.906;2024-01-16T15:12:40;6.30;;;1.08;;
70369;SDS011;57790;51.356;-2.906;2024-01-16T15:15:41;4.82;;;1.15;;
70369;SDS011;57790;51.356;-2.906;2024-01-16T15:18:43;5.10;;;1.13;;
70369;SDS011;57790;51.356;-2.906;2024-01-16T15:21:43;4.57;;;0.97;;
70369;SDS011;57790;51.356;-2.906;2024-01-16T15:24:43;6.77;;;1.33;;
70369;SDS011;57790;51.356;-2.906;2024-01-16T15:27:46;4.65;;;1.00;;
70369;SDS011;57790;51.356;-2.906;2024-01-16T15:30:46;5.77;;;1.00;;
70369;SDS011;57790;51.356;-2.906;2024-01-16T15:33:47;6.07;;;1.30;;
70369;SDS011;57790;51.356;-2.906;2024-01-16T15:36:47;6.88;;;1.25;;
70369;SDS011;57790;51.356;-2.906;2024-01-16T15:39:48;6.00;;;1.10;;
70369;SDS011;57790;51.356;-2.906;2024-01-16T15:42:48;5.30;;;1.20;;
70369;SDS011;57790;51.356;-2.906;2024-01-16T15:45:49;5.38;;;1.35;;
70369;SDS011;57790;51.356;-2.906;2024-01-16T15:48:50;5.25;;;1.27;;
70369;SDS011;57790;51.356;-2.906;2024-01-16T15:51:51;5.80;;;1.47;;
70369;SDS011;57790;51.356;-2.906;2024-01-16T15:54:52;7.38;;;1.27;;
70369;SDS011;57790;51.356;-2.906;2024-01-16T15:57:53;8.03;;;1.70;;
70369;SDS011;57790;51.356;-2.906;2024-01-16T16:00:54;5.90;;;1.50;;
70369;SDS011;57790;51.356;-2.906;2024-01-16T16:03:55;8.67;;;1.57;;
70369;SDS011;57790;51.356;-2.906;2024-01-16T16:06:55;7.05;;;1.65;;
70369;SDS011;57790;51.356;-2.906;2024-01-16T16:09:55;6.70;;;1.40;;
70369;SDS011;57790;51.356;-2.906;2024-01-16T16:12:56;6.20;;;1.53;;
70369;SDS011;57790;51.356;-2.906;2024-01-16T16:15:56;5.93;;;1.40;;
70369;SDS011;57790;51.356;-2.906;2024-01-16T16:18:57;4.77;;;1.40;;
70369;SDS011;57790;51.356;-2.906;2024-01-16T16:21:58;6.00;;;1.40;;
70369;SDS011;57790;51.356;-2.906;2024-01-16T16:24:58;7.73;;;1.50;;
70369;SDS011;57790;51.356;-2.906;2024-01-16T16:27:59;5.97;;;1.40;;
70369;SDS011;57790;51.356;-2.906;2024-01-16T16:31:02;6.15;;;1.40;;
70369;SDS011;57790;51.356;-2.906;2024-01-16T16:34:04;4.93;;;1.40;;
70369;SDS011;57790;51.356;-2.906;2024-01-16T16:37:12;6.68;;;1.48;;
70369;SDS011;57790;51.356;-2.906;2024-01-16T16:40:13;6.40;;;1.48;;
70369;SDS011;57790;51.356;-2.906;2024-01-16T16:43:15;6.22;;;1.67;;
70369;SDS011;57790;51.356;-2.906;2024-01-16T16:46:16;6.17;;;1.70;;
70369;SDS011;57790;51.356;-2.906;2024-01-16T16:49:17;5.93;;;1.48;;
70369;SDS011;57790;51.356;-2.906;2024-01-16T16:52:18;8.70;;;1.50;;
70369;SDS011;57790;51.356;-2.906;2024-01-16T16:55:18;6.37;;;1.50;;
70369;SDS011;57790;51.356;-2.906;2024-01-16T16:58:19;6.05;;;1.40;;
70369;SDS011;57790;51.356;-2.906;2024-01-16T17:01:20;6.53;;;1.40;;
70369;SDS011;57790;51.356;-2.906;2024-01-16T17:04:21;6.53;;;1.20;;
70369;SDS011;57790;51.356;-2.906;2024-01-16T17:07:22;6.47;;;1.50;;
70369;SDS011;57790;51.356;-2.906;2024-01-16T17:10:22;6.67;;;1.87;;
70369;SDS011;57790;51.356;-2.906;2024-01-16T17:13:23;5.50;;;1.43;;
70369;SDS011;57790;51.356;-2.906;2024-01-16T17:16:23;5.17;;;1.33;;
70369;SDS011;57790;51.356;-2.906;2024-01-16T17:19:25;6.07;;;1.50;;
70369;SDS011;57790;51.356;-2.906;2024-01-16T17:22:25;6.70;;;1.80;;
70369;SDS011;57790;51.356;-2.906;2024-01-16T17:25:26;6.90;;;1.50;;
70369;SDS011;57790;51.356;-2.906;2024-01-16T17:28:26;6.53;;;1.70;;
70369;SDS011;57790;51.356;-2.906;2024-01-16T17:31:28;6.80;;;1.60;;
70369;SDS011;57790;51.356;-2.906;2024-01-16T17:34:28;6.43;;;1.57;;
70369;SDS011;57790;51.356;-2.906;2024-01-16T17:37:29;6.60;;;1.77;;
70369;SDS011;57790;51.356;-2.906;2024-01-16T17:40:29;8.23;;;1.73;;
70369;SDS011;57790;51.356;-2.906;2024-01-16T17:43:30;7.57;;;2.33;;
70369;SDS011;57790;51.356;-2.906;2024-01-16T17:46:31;8.17;;;2.30;;
70369;SDS011;57790;51.356;-2.906;2024-01-16T17:49:31;8.03;;;2.27;;
70369;SDS011;57790;51.356;-2.906;2024-01-16T17:52:33;9.88;;;2.58;;
70369;SDS011;57790;51.356;-2.906;2024-01-16T17:55:35;7.72;;;2.28;;
70369;SDS011;57790;51.356;-2.906;2024-01-16T17:58:35;7.33;;;1.87;;
70369;SDS011;57790;51.356;-2.906;2024-01-16T18:01:36;8.50;;;2.33;;
70369;SDS011;57790;51.356;-2.906;2024-01-16T18:04:37;9.25;;;2.60;;